createdAt,value
2018-02-16T00:00:19.003Z,32.83
2018-02-16T00:00:52.668Z,30.95
2018-02-16T00:01:26.347Z,30.95
2018-02-16T00:02:00.050Z,29.35
2018-02-16T00:02:33.726Z,29.67
2018-02-16T00:03:07.391Z,30.83
2018-02-16T00:03:41.067Z,31.00
2018-02-16T00:04:15.488Z,30.60
2018-02-16T00:04:49.166Z,29.40
2018-02-16T00:05:23.594Z,30.90
2018-02-16T00:05:57.270Z,30.92
2018-02-16T00:06:30.279Z,30.25
2018-02-16T00:07:03.686Z,29.85
2018-02-16T00:07:37.355Z,29.20
2018-02-16T00:08:11.021Z,29.65
2018-02-16T00:08:44.701Z,29.75
2018-02-16T00:09:18.380Z,30.10
2018-02-16T00:09:52.038Z,30.00
2018-02-16T00:10:25.730Z,30.20
2018-02-16T00:10:59.387Z,30.00
2018-02-16T00:11:33.066Z,30.20
2018-02-16T00:12:06.766Z,30.85
2018-02-16T00:12:40.429Z,29.90
2018-02-16T00:13:14.113Z,29.48
2018-02-16T00:13:47.806Z,32.95
2018-02-16T00:14:21.474Z,31.37
2018-02-16T00:14:55.894Z,30.17
2018-02-16T00:15:29.550Z,29.98
2018-02-16T00:16:03.213Z,30.23
2018-02-16T00:16:36.886Z,30.88
2018-02-16T00:17:10.585Z,31.77
2018-02-16T00:17:44.242Z,32.25
2018-02-16T00:18:17.931Z,30.73
2018-02-16T00:18:51.585Z,31.60
2018-02-16T00:19:25.261Z,32.03
2018-02-16T00:19:58.942Z,32.58
2018-02-16T00:20:32.614Z,31.90
2018-02-16T00:21:06.280Z,30.37
2018-02-16T00:21:39.953Z,30.10
2018-02-16T00:22:14.413Z,30.80
2018-02-16T00:22:48.100Z,30.55
2018-02-16T00:23:21.765Z,30.48
2018-02-16T00:23:55.437Z,30.00
2018-02-16T00:24:29.106Z,29.73
2018-02-16T00:25:02.770Z,30.45
2018-02-16T00:25:36.443Z,29.98
2018-02-16T00:26:10.105Z,29.98
2018-02-16T00:26:43.781Z,30.55
2018-02-16T00:27:18.251Z,31.30
2018-02-16T00:27:52.562Z,29.70
2018-02-16T00:28:26.255Z,29.85
2018-02-16T00:28:59.934Z,29.85
2018-02-16T00:29:33.607Z,30.50
2018-02-16T00:30:07.286Z,30.05
2018-02-16T00:30:40.947Z,29.02
2018-02-16T00:31:15.395Z,29.15
2018-02-16T00:31:49.078Z,30.02
2018-02-16T00:32:22.793Z,29.90
2018-02-16T00:32:56.464Z,30.35
2018-02-16T00:33:30.160Z,29.58
2018-02-16T00:34:03.844Z,30.42
2018-02-16T00:34:37.533Z,29.08
2018-02-16T00:35:11.224Z,30.37
2018-02-16T00:35:44.906Z,29.33
2018-02-16T00:36:18.613Z,30.52
2018-02-16T00:36:52.285Z,31.58
2018-02-16T00:37:25.974Z,30.52
2018-02-16T00:37:59.659Z,30.65
2018-02-16T00:38:33.322Z,30.67
2018-02-16T00:39:06.994Z,30.80
2018-02-16T00:39:41.417Z,30.67
2018-02-16T00:40:15.073Z,29.63
2018-02-16T00:40:48.738Z,29.80
2018-02-16T00:41:22.427Z,31.00
2018-02-16T00:41:56.878Z,30.70
2018-02-16T00:42:31.609Z,32.22
2018-02-16T00:43:05.710Z,30.75
2018-02-16T00:43:39.370Z,30.58
2018-02-16T00:44:13.051Z,29.40
2018-02-16T00:44:46.726Z,28.45
2018-02-16T00:45:20.411Z,28.87
2018-02-16T00:45:54.091Z,31.77
2018-02-16T00:46:27.765Z,30.37
2018-02-16T00:47:01.434Z,29.00
2018-02-16T00:47:35.122Z,29.45
2018-02-16T00:48:08.786Z,29.85
2018-02-16T00:48:42.268Z,30.00
2018-02-16T00:49:15.950Z,30.10
2018-02-16T00:49:49.640Z,30.50
2018-02-16T00:50:23.300Z,29.05
2018-02-16T00:50:56.993Z,31.05
2018-02-16T00:51:30.674Z,30.77
2018-02-16T00:52:04.337Z,30.08
2018-02-16T00:52:38.026Z,31.60
2018-02-16T00:53:11.688Z,29.92
2018-02-16T00:53:45.350Z,31.40
2018-02-16T00:54:19.021Z,30.58
2018-02-16T00:54:52.685Z,29.95
2018-02-16T00:55:26.357Z,30.77
2018-02-16T00:56:00.783Z,29.60
2018-02-16T00:56:34.471Z,30.95
2018-02-16T00:57:08.158Z,29.98
2018-02-16T00:57:42.633Z,31.85
2018-02-16T00:58:17.814Z,30.50
2018-02-16T00:58:51.482Z,29.98
2018-02-16T00:59:25.921Z,29.65
2018-02-16T00:59:59.643Z,29.55
2018-02-16T01:00:33.317Z,28.67
2018-02-16T01:01:06.650Z,29.50
2018-02-16T01:01:41.091Z,29.90
2018-02-16T01:02:14.766Z,29.83
2018-02-16T01:02:48.454Z,29.52
2018-02-16T01:03:22.125Z,30.77
2018-02-16T01:03:55.787Z,30.27
2018-02-16T01:04:29.450Z,30.52
2018-02-16T01:05:03.184Z,30.05
2018-02-16T01:05:37.014Z,30.25
2018-02-16T01:06:10.683Z,29.98
2018-02-16T01:06:44.362Z,29.35
2018-02-16T01:07:18.801Z,30.73
2018-02-16T01:07:52.553Z,30.37
2018-02-16T01:08:26.989Z,27.60
2018-02-16T01:09:00.662Z,29.08
2018-02-16T01:09:34.323Z,30.62
2018-02-16T01:10:07.990Z,29.55
2018-02-16T01:10:42.418Z,30.58
2018-02-16T01:11:16.097Z,32.05
2018-02-16T01:11:49.774Z,29.15
2018-02-16T01:12:23.446Z,29.45
2018-02-16T01:12:57.467Z,31.30
2018-02-16T01:13:31.151Z,32.05
2018-02-16T01:14:04.483Z,32.45
2018-02-16T01:14:38.913Z,31.23
2018-02-16T01:15:12.581Z,30.60
2018-02-16T01:15:47.706Z,31.25
2018-02-16T01:16:22.151Z,31.33
2018-02-16T01:16:55.889Z,30.55
2018-02-16T01:17:30.369Z,30.30
2018-02-16T01:18:04.358Z,30.12
2018-02-16T01:18:38.105Z,31.00
2018-02-16T01:19:11.943Z,30.02
2018-02-16T01:19:45.669Z,31.05
2018-02-16T01:20:20.097Z,28.83
2018-02-16T01:20:53.778Z,29.83
2018-02-16T01:21:28.221Z,30.02
2018-02-16T01:22:01.903Z,31.20
2018-02-16T01:22:35.581Z,28.45
2018-02-16T01:23:09.286Z,31.35
2018-02-16T01:23:42.946Z,30.45
2018-02-16T01:24:17.386Z,31.00
2018-02-16T01:24:51.047Z,29.60
2018-02-16T01:25:24.747Z,31.98
2018-02-16T01:25:58.422Z,31.80
2018-02-16T01:26:33.019Z,32.25
2018-02-16T01:27:08.219Z,31.62
2018-02-16T01:27:43.386Z,31.23
2018-02-16T01:28:17.095Z,31.10
2018-02-16T01:28:50.957Z,30.90
2018-02-16T01:29:27.361Z,31.37
2018-02-16T01:30:01.040Z,30.35
2018-02-16T01:30:34.521Z,30.30
2018-02-16T01:31:08.184Z,31.77
2018-02-16T01:31:42.622Z,30.35
2018-02-16T01:32:16.305Z,32.33
2018-02-16T01:32:49.966Z,33.75
2018-02-16T01:33:24.467Z,32.22
2018-02-16T01:33:58.911Z,31.92
2018-02-16T01:34:32.594Z,31.55
2018-02-16T01:35:06.255Z,32.42
2018-02-16T01:35:40.694Z,32.38
2018-02-16T01:36:14.366Z,30.40
2018-02-16T01:36:48.798Z,33.63
2018-02-16T01:37:22.485Z,31.50
2018-02-16T01:37:56.171Z,30.77
2018-02-16T01:38:29.531Z,32.15
2018-02-16T01:39:03.113Z,31.70
2018-02-16T01:39:37.213Z,30.90
2018-02-16T01:40:10.898Z,32.40
2018-02-16T01:40:45.346Z,29.90
2018-02-16T01:41:19.021Z,31.15
2018-02-16T01:41:52.696Z,29.87
2018-02-16T01:42:27.129Z,31.62
2018-02-16T01:43:00.802Z,31.85
2018-02-16T01:43:34.497Z,31.75
2018-02-16T01:44:08.170Z,28.80
2018-02-16T01:44:42.607Z,31.05
2018-02-16T01:45:16.285Z,30.60
2018-02-16T01:45:49.973Z,31.85
2018-02-16T01:46:23.641Z,30.80
2018-02-16T01:46:58.082Z,29.75
2018-02-16T01:47:31.759Z,28.35
2018-02-16T01:48:05.426Z,29.70
2018-02-16T01:48:39.893Z,29.67
2018-02-16T01:49:13.562Z,30.35
2018-02-16T01:49:58.514Z,30.73
2018-02-16T01:50:32.192Z,29.08
2018-02-16T01:51:05.865Z,29.40
2018-02-16T01:51:39.533Z,28.08
2018-02-16T01:52:13.197Z,29.75
2018-02-16T01:52:46.859Z,28.80
2018-02-16T01:53:20.545Z,30.55
2018-02-16T01:53:54.248Z,29.77
2018-02-16T01:54:27.926Z,29.65
2018-02-16T01:55:01.594Z,28.87
2018-02-16T01:55:35.273Z,29.30
2018-02-16T01:56:09.718Z,31.25
2018-02-16T01:56:43.386Z,30.80
2018-02-16T01:57:17.075Z,29.98
2018-02-16T01:57:50.765Z,30.58
2018-02-16T01:58:24.442Z,29.50
2018-02-16T01:58:59.106Z,29.48
2018-02-16T01:59:32.793Z,29.48
2018-02-16T02:00:06.469Z,28.62
2018-02-16T02:00:40.150Z,29.23
2018-02-16T02:01:13.825Z,30.10
2018-02-16T02:01:47.491Z,29.45
2018-02-16T02:02:21.930Z,30.00
2018-02-16T02:02:55.590Z,29.42
2018-02-16T02:03:30.036Z,30.25
2018-02-16T02:04:03.735Z,29.87
2018-02-16T02:04:37.410Z,30.60
2018-02-16T02:05:11.073Z,28.30
2018-02-16T02:05:45.497Z,30.23
2018-02-16T02:06:19.174Z,31.23
2018-02-16T02:06:53.598Z,29.05
2018-02-16T02:07:27.268Z,28.50
2018-02-16T02:08:01.707Z,29.30
2018-02-16T02:08:35.379Z,28.83
2018-02-16T02:09:08.749Z,30.92
2018-02-16T02:09:43.193Z,30.50
2018-02-16T02:10:16.859Z,30.20
2018-02-16T02:10:51.287Z,30.27
2018-02-16T02:11:24.962Z,30.85
2018-02-16T02:11:58.621Z,29.48
2018-02-16T02:12:33.063Z,29.37
2018-02-16T02:13:06.397Z,31.30
2018-02-16T02:13:40.070Z,30.65
2018-02-16T02:14:14.101Z,32.33
2018-02-16T02:14:48.200Z,29.90
2018-02-16T02:15:22.644Z,31.33
2018-02-16T02:15:56.319Z,28.67
2018-02-16T02:16:29.983Z,28.52
2018-02-16T02:17:04.428Z,27.77
2018-02-16T02:17:38.121Z,30.12
2018-02-16T02:18:11.802Z,30.67
2018-02-16T02:18:45.462Z,28.92
2018-02-16T02:19:19.599Z,30.00
2018-02-16T02:19:53.269Z,30.83
2018-02-16T02:20:26.590Z,30.00
2018-02-16T02:21:00.278Z,29.33
2018-02-16T02:21:33.944Z,30.80
2018-02-16T02:22:07.619Z,30.55
2018-02-16T02:22:41.288Z,28.42
2018-02-16T02:23:15.728Z,29.63
2018-02-16T02:23:49.406Z,29.67
2018-02-16T02:24:23.381Z,27.70
2018-02-16T02:24:57.823Z,30.17
2018-02-16T02:25:31.906Z,29.70
2018-02-16T02:26:05.577Z,32.20
2018-02-16T02:26:39.249Z,29.75
2018-02-16T02:27:12.911Z,29.75
2018-02-16T02:27:46.576Z,29.70
2018-02-16T02:28:20.252Z,30.40
2018-02-16T02:28:53.924Z,29.63
2018-02-16T02:29:28.393Z,29.58
2018-02-16T02:30:02.082Z,29.08
2018-02-16T02:30:35.427Z,31.12
2018-02-16T02:31:09.863Z,28.20
2018-02-16T02:31:43.524Z,30.17
2018-02-16T02:32:17.210Z,30.55
2018-02-16T02:32:51.653Z,30.00
2018-02-16T02:33:25.750Z,28.48
2018-02-16T02:33:59.430Z,30.17
2018-02-16T02:34:33.144Z,31.58
2018-02-16T02:35:06.811Z,31.30
2018-02-16T02:35:40.486Z,29.50
2018-02-16T02:36:14.147Z,30.40
2018-02-16T02:36:48.594Z,29.10
2018-02-16T02:37:22.276Z,30.60
2018-02-16T02:37:55.950Z,29.85
2018-02-16T02:38:29.638Z,29.77
2018-02-16T02:39:03.226Z,30.08
2018-02-16T02:39:37.229Z,31.23
2018-02-16T02:40:10.895Z,29.65
2018-02-16T02:40:45.356Z,31.60
2018-02-16T02:41:19.026Z,29.25
2018-02-16T02:41:52.716Z,29.37
2018-02-16T02:42:26.406Z,31.17
2018-02-16T02:43:00.089Z,31.10
2018-02-16T02:43:33.762Z,32.00
2018-02-16T02:44:08.214Z,30.20
2018-02-16T02:44:42.270Z,29.17
2018-02-16T02:45:16.724Z,30.85
2018-02-16T02:45:50.389Z,30.40
2018-02-16T02:46:24.067Z,30.15
2018-02-16T02:46:57.743Z,30.25
2018-02-16T02:47:32.177Z,29.33
2018-02-16T02:48:05.855Z,29.95
2018-02-16T02:48:39.547Z,29.73
2018-02-16T02:49:13.231Z,31.65
2018-02-16T02:49:47.716Z,30.67
2018-02-16T02:50:22.170Z,30.35
2018-02-16T02:50:55.839Z,30.30
2018-02-16T02:51:29.526Z,32.25
2018-02-16T02:52:03.186Z,31.10
2018-02-16T02:52:36.860Z,29.50
2018-02-16T02:53:10.534Z,31.65
2018-02-16T02:53:44.214Z,32.15
2018-02-16T02:54:17.877Z,30.60
2018-02-16T02:54:51.562Z,32.75
2018-02-16T02:55:25.233Z,29.90
2018-02-16T02:55:59.681Z,31.92
2018-02-16T02:56:33.350Z,30.00
2018-02-16T02:57:07.013Z,29.55
2018-02-16T02:57:40.693Z,31.75
2018-02-16T02:58:14.349Z,30.95
2018-02-16T02:58:48.027Z,31.00
2018-02-16T02:59:21.694Z,31.85
2018-02-16T02:59:55.393Z,32.78
2018-02-16T03:00:29.067Z,31.17
2018-02-16T03:01:03.491Z,30.25
2018-02-16T03:01:37.166Z,31.95
2018-02-16T03:02:11.610Z,31.95
2018-02-16T03:02:45.291Z,30.73
2018-02-16T03:03:18.959Z,31.62
2018-02-16T03:03:52.620Z,30.08
2018-02-16T03:04:26.288Z,31.15
2018-02-16T03:04:59.985Z,31.75
2018-02-16T03:05:33.650Z,31.37
2018-02-16T03:06:07.430Z,30.90
2018-02-16T03:06:41.102Z,32.05
2018-02-16T03:07:15.531Z,30.33
2018-02-16T03:07:49.192Z,29.37
2018-02-16T03:08:23.630Z,31.33
2018-02-16T03:08:57.318Z,32.17
2018-02-16T03:09:30.984Z,31.98
2018-02-16T03:10:04.685Z,31.12
2018-02-16T03:10:38.346Z,30.40
2018-02-16T03:11:12.786Z,33.13
2018-02-16T03:11:46.454Z,31.37
2018-02-16T03:12:20.113Z,31.30
2018-02-16T03:12:53.794Z,31.75
2018-02-16T03:13:27.549Z,31.23
2018-02-16T03:14:01.315Z,30.95
2018-02-16T03:14:35.750Z,29.92
2018-02-16T03:15:09.455Z,30.65
2018-02-16T03:15:43.130Z,33.65
2018-02-16T03:16:16.787Z,30.60
2018-02-16T03:16:51.226Z,31.15
2018-02-16T03:17:24.899Z,31.05
2018-02-16T03:17:58.594Z,29.48
2018-02-16T03:18:32.262Z,29.87
2018-02-16T03:19:06.701Z,32.65
2018-02-16T03:19:40.365Z,29.77
2018-02-16T03:20:14.057Z,30.17
2018-02-16T03:20:47.744Z,29.83
2018-02-16T03:21:22.185Z,29.17
2018-02-16T03:21:55.839Z,28.73
2018-02-16T03:22:29.530Z,31.35
2018-02-16T03:23:03.961Z,29.17
2018-02-16T03:23:37.626Z,30.48
2018-02-16T03:24:12.062Z,30.20
2018-02-16T03:24:45.722Z,31.85
2018-02-16T03:25:19.419Z,31.33
2018-02-16T03:25:53.845Z,29.58
2018-02-16T03:26:27.507Z,29.70
2018-02-16T03:27:01.950Z,31.50
2018-02-16T03:27:35.610Z,30.75
2018-02-16T03:28:09.319Z,30.67
2018-02-16T03:28:42.988Z,30.48
2018-02-16T03:29:16.654Z,29.92
2018-02-16T03:29:50.320Z,30.27
2018-02-16T03:30:24.353Z,29.90
2018-02-16T03:30:58.802Z,30.65
2018-02-16T03:31:32.470Z,30.50
2018-02-16T03:32:06.154Z,31.23
2018-02-16T03:32:39.822Z,29.60
2018-02-16T03:33:14.261Z,30.62
2018-02-16T03:33:47.946Z,29.55
2018-02-16T03:34:21.630Z,29.50
2018-02-16T03:34:55.299Z,29.20
2018-02-16T03:35:30.067Z,28.87
2018-02-16T03:36:03.748Z,29.63
2018-02-16T03:36:37.410Z,31.12
2018-02-16T03:37:11.850Z,28.77
2018-02-16T03:37:45.535Z,30.98
2018-02-16T03:38:19.212Z,28.87
2018-02-16T03:38:52.879Z,30.15
2018-02-16T03:39:27.329Z,31.35
2018-02-16T03:40:01.010Z,31.17
2018-02-16T03:40:34.698Z,31.87
2018-02-16T03:41:08.366Z,31.67
2018-02-16T03:41:42.036Z,33.15
2018-02-16T03:42:16.473Z,30.27
2018-02-16T03:42:50.148Z,29.77
2018-02-16T03:43:23.816Z,31.98
2018-02-16T03:43:58.274Z,31.48
2018-02-16T03:44:31.941Z,28.95
2018-02-16T03:45:05.623Z,30.17
2018-02-16T03:45:39.336Z,32.95
2018-02-16T03:46:13.001Z,33.13
2018-02-16T03:46:47.447Z,32.00
2018-02-16T03:47:21.104Z,31.02
2018-02-16T03:47:54.775Z,31.20
2018-02-16T03:48:29.201Z,30.08
2018-02-16T03:49:02.884Z,30.83
2018-02-16T03:49:37.325Z,33.25
2018-02-16T03:50:10.674Z,31.90
2018-02-16T03:50:45.142Z,33.30
2018-02-16T03:51:18.804Z,31.83
2018-02-16T03:51:52.506Z,31.90
2018-02-16T03:52:26.177Z,31.92
2018-02-16T03:52:59.850Z,32.28
2018-02-16T03:53:33.523Z,31.27
2018-02-16T03:54:07.962Z,31.00
2018-02-16T03:54:41.628Z,30.90
2018-02-16T03:55:16.058Z,29.95
2018-02-16T03:55:49.753Z,30.15
2018-02-16T03:56:23.431Z,30.77
2018-02-16T03:56:57.100Z,29.65
2018-02-16T03:57:31.538Z,30.40
2018-02-16T03:58:05.202Z,28.95
2018-02-16T03:58:38.876Z,30.40
2018-02-16T03:59:13.319Z,29.63
2018-02-16T03:59:46.985Z,31.02
2018-02-16T04:00:21.422Z,30.77
2018-02-16T04:00:55.131Z,31.70
2018-02-16T04:01:28.797Z,29.40
2018-02-16T04:02:02.469Z,27.67
2018-02-16T04:02:36.146Z,30.58
2018-02-16T04:03:10.576Z,29.37
2018-02-16T04:03:44.258Z,29.75
2018-02-16T04:04:17.931Z,30.05
2018-02-16T04:04:52.375Z,29.00
2018-02-16T04:05:26.054Z,27.83
2018-02-16T04:05:59.746Z,28.17
2018-02-16T04:06:33.422Z,29.52
2018-02-16T04:07:07.081Z,28.98
2018-02-16T04:07:40.739Z,29.42
2018-02-16T04:08:14.428Z,30.90
2018-02-16T04:08:48.121Z,27.92
2018-02-16T04:09:21.804Z,31.08
2018-02-16T04:09:55.474Z,30.10
2018-02-16T04:10:29.153Z,29.33
2018-02-16T04:11:02.856Z,30.73
2018-02-16T04:11:36.525Z,28.80
2018-02-16T04:12:10.199Z,28.55
2018-02-16T04:12:44.648Z,28.90
2018-02-16T04:13:18.322Z,29.20
2018-02-16T04:13:51.991Z,29.65
2018-02-16T04:14:26.427Z,29.50
2018-02-16T04:15:00.099Z,29.95
2018-02-16T04:15:33.777Z,29.33
2018-02-16T04:16:08.255Z,29.35
2018-02-16T04:16:41.945Z,28.58
2018-02-16T04:17:15.617Z,30.00
2018-02-16T04:17:49.291Z,29.75
2018-02-16T04:18:22.975Z,28.98
2018-02-16T04:18:56.649Z,28.52
2018-02-16T04:19:30.154Z,29.95
2018-02-16T04:20:03.826Z,30.88
2018-02-16T04:20:37.491Z,28.80
2018-02-16T04:21:12.330Z,30.10
2018-02-16T04:21:45.998Z,28.35
2018-02-16T04:22:20.444Z,30.92
2018-02-16T04:22:54.110Z,30.20
2018-02-16T04:23:27.782Z,27.92
2018-02-16T04:24:02.226Z,28.40
2018-02-16T04:24:35.900Z,28.73
2018-02-16T04:25:09.592Z,29.20
2018-02-16T04:25:43.263Z,30.60
2018-02-16T04:26:18.078Z,29.63
2018-02-16T04:26:52.510Z,28.70
2018-02-16T04:27:26.186Z,31.98
2018-02-16T04:27:59.862Z,30.90
2018-02-16T04:28:34.303Z,29.65
2018-02-16T04:29:07.964Z,31.98
2018-02-16T04:29:42.393Z,31.45
2018-02-16T04:30:16.070Z,31.52
2018-02-16T04:30:49.746Z,30.45
2018-02-16T04:31:24.512Z,31.55
2018-02-16T04:31:58.185Z,31.15
2018-02-16T04:32:31.853Z,30.62
2018-02-16T04:33:06.297Z,31.27
2018-02-16T04:33:39.992Z,31.05
2018-02-16T04:34:13.678Z,31.37
2018-02-16T04:34:47.351Z,32.25
2018-02-16T04:35:21.106Z,30.65
2018-02-16T04:35:55.564Z,31.87
2018-02-16T04:36:29.510Z,30.70
2018-02-16T04:37:03.951Z,32.47
2018-02-16T04:37:37.478Z,32.80
2018-02-16T04:38:11.178Z,30.75
2018-02-16T04:38:44.853Z,31.20
2018-02-16T04:39:18.528Z,33.17
2018-02-16T04:39:52.211Z,31.25
2018-02-16T04:40:25.887Z,31.60
2018-02-16T04:40:59.554Z,32.92
2018-02-16T04:41:33.253Z,32.47
2018-02-16T04:42:06.921Z,31.92
2018-02-16T04:42:41.360Z,32.28
2018-02-16T04:43:15.025Z,30.65
2018-02-16T04:43:48.697Z,32.55
2018-02-16T04:44:22.367Z,31.55
2018-02-16T04:44:56.042Z,31.33
2018-02-16T04:45:29.716Z,31.02
2018-02-16T04:46:03.394Z,31.05
2018-02-16T04:46:37.102Z,30.23
2018-02-16T04:47:10.773Z,30.52
2018-02-16T04:47:44.435Z,30.88
2018-02-16T04:48:18.876Z,32.45
2018-02-16T04:48:52.541Z,32.45
2018-02-16T04:49:26.974Z,32.30
2018-02-16T04:50:00.638Z,31.65
2018-02-16T04:50:34.319Z,29.63
2018-02-16T04:51:08.760Z,29.70
2018-02-16T04:51:42.834Z,31.62
2018-02-16T04:52:16.504Z,32.25
2018-02-16T04:52:50.169Z,31.15
2018-02-16T04:53:23.842Z,30.92
2018-02-16T04:53:57.531Z,30.05
2018-02-16T04:54:31.206Z,30.77
2018-02-16T04:55:05.537Z,33.47
2018-02-16T04:55:39.195Z,33.60
2018-02-16T04:56:13.686Z,33.20
2018-02-16T04:56:49.232Z,29.95
2018-02-16T04:57:23.228Z,31.85
2018-02-16T04:57:56.966Z,33.53
2018-02-16T04:58:30.689Z,32.00
2018-02-16T04:59:05.134Z,31.30
2018-02-16T04:59:38.811Z,32.38
2018-02-16T05:00:12.538Z,31.17
2018-02-16T05:00:45.889Z,30.88
2018-02-16T05:01:19.552Z,31.80
2018-02-16T05:01:54.013Z,31.98
2018-02-16T05:02:27.690Z,32.58
2018-02-16T05:03:01.477Z,33.15
2018-02-16T05:03:34.805Z,32.38
2018-02-16T05:04:08.468Z,32.78
2018-02-16T05:04:42.144Z,33.20
2018-02-16T05:05:15.828Z,33.63
2018-02-16T05:05:49.497Z,32.67
2018-02-16T05:06:23.158Z,32.15
2018-02-16T05:06:56.863Z,31.60
2018-02-16T05:07:31.284Z,33.00
2018-02-16T05:08:04.965Z,32.75
2018-02-16T05:08:38.297Z,31.62
2018-02-16T05:09:12.734Z,31.45
2018-02-16T05:09:47.171Z,32.63
2018-02-16T05:10:20.844Z,32.75
2018-02-16T05:10:55.285Z,32.38
2018-02-16T05:11:28.962Z,32.13
2018-02-16T05:12:02.665Z,32.03
2018-02-16T05:12:36.329Z,32.38
2018-02-16T05:13:10.006Z,31.95
2018-02-16T05:13:44.458Z,31.85
2018-02-16T05:14:20.615Z,32.05
2018-02-16T05:14:54.290Z,33.05
2018-02-16T05:15:29.930Z,32.47
2018-02-16T05:16:03.595Z,31.73
2018-02-16T05:16:37.269Z,30.58
2018-02-16T05:17:11.753Z,31.55
2018-02-16T05:17:45.461Z,34.35
2018-02-16T05:18:19.898Z,33.13
2018-02-16T05:18:53.568Z,31.48
2018-02-16T05:19:28.006Z,32.20
2018-02-16T05:20:01.678Z,31.02
2018-02-16T05:20:35.350Z,33.15
2018-02-16T05:21:09.601Z,31.70
2018-02-16T05:21:43.273Z,32.47
2018-02-16T05:22:17.014Z,32.42
2018-02-16T05:22:50.675Z,32.58
2018-02-16T05:23:24.343Z,33.78
2018-02-16T05:23:58.007Z,32.17
2018-02-16T05:24:32.471Z,30.92
2018-02-16T05:25:06.196Z,31.10
2018-02-16T05:25:40.640Z,30.98
2018-02-16T05:26:14.310Z,33.58
2018-02-16T05:26:47.986Z,31.73
2018-02-16T05:27:22.487Z,33.60
2018-02-16T05:27:56.738Z,31.70
2018-02-16T05:28:30.418Z,33.78
2018-02-16T05:29:03.870Z,32.00
2018-02-16T05:29:38.314Z,30.95
2018-02-16T05:30:12.006Z,31.10
2018-02-16T05:30:45.773Z,31.50
2018-02-16T05:31:19.428Z,30.90
2018-02-16T05:31:53.085Z,31.80
2018-02-16T05:32:26.790Z,32.95
2018-02-16T05:33:00.465Z,32.85
2018-02-16T05:33:34.141Z,31.20
2018-02-16T05:34:07.828Z,32.67
2018-02-16T05:34:41.493Z,31.50
2018-02-16T05:35:15.160Z,32.10
2018-02-16T05:35:48.845Z,31.55
2018-02-16T05:36:22.542Z,31.08
2018-02-16T05:36:56.355Z,30.70
2018-02-16T05:37:31.854Z,30.92
2018-02-16T05:38:05.522Z,31.00
2018-02-16T05:38:39.945Z,33.28
2018-02-16T05:39:13.619Z,33.53
2018-02-16T05:39:47.298Z,31.08
2018-02-16T05:40:20.953Z,31.15
2018-02-16T05:40:55.405Z,30.20
2018-02-16T05:41:29.090Z,31.50
2018-02-16T05:42:02.778Z,32.22
2018-02-16T05:42:36.474Z,33.45
2018-02-16T05:43:10.946Z,31.92
2018-02-16T05:43:44.626Z,30.60
2018-02-16T05:44:19.228Z,31.25
2018-02-16T05:44:53.670Z,30.23
2018-02-16T05:45:27.333Z,31.08
2018-02-16T05:46:01.779Z,31.37
2018-02-16T05:46:35.452Z,31.35
2018-02-16T05:47:09.123Z,32.42
2018-02-16T05:47:42.818Z,30.90
2018-02-16T05:48:16.489Z,31.35
2018-02-16T05:48:50.933Z,33.35
2018-02-16T05:49:24.598Z,33.85
2018-02-16T05:49:59.031Z,31.30
2018-02-16T05:50:32.693Z,32.17
2018-02-16T05:51:07.127Z,28.77
2018-02-16T05:51:40.790Z,32.15
2018-02-16T05:52:15.222Z,31.92
2018-02-16T05:52:49.021Z,32.33
2018-02-16T05:53:22.724Z,31.30
2018-02-16T05:53:56.410Z,32.40
2018-02-16T05:54:29.899Z,30.70
2018-02-16T05:55:03.587Z,30.33
2018-02-16T05:55:37.274Z,32.00
2018-02-16T05:56:10.962Z,31.73
2018-02-16T05:56:44.674Z,31.40
2018-02-16T05:57:18.346Z,31.85
2018-02-16T05:57:52.038Z,31.48
2018-02-16T05:58:25.709Z,31.75
2018-02-16T05:58:59.375Z,31.17
2018-02-16T05:59:33.067Z,31.30
2018-02-16T06:00:06.549Z,29.90
2018-02-16T06:00:40.246Z,31.15
2018-02-16T06:01:13.912Z,29.52
2018-02-16T06:01:47.625Z,31.42
2018-02-16T06:02:21.754Z,30.70
2018-02-16T06:02:55.454Z,30.98
2018-02-16T06:03:29.130Z,31.75
2018-02-16T06:04:02.809Z,28.75
2018-02-16T06:04:36.496Z,29.75
2018-02-16T06:05:10.289Z,30.52
2018-02-16T06:05:43.959Z,28.15
2018-02-16T06:06:17.638Z,29.35
2018-02-16T06:06:52.088Z,31.25
2018-02-16T06:07:25.759Z,29.15
2018-02-16T06:07:59.472Z,30.85
2018-02-16T06:08:33.144Z,31.12
2018-02-16T06:09:06.807Z,31.85
2018-02-16T06:09:41.256Z,30.15
2018-02-16T06:10:15.695Z,29.42
2018-02-16T06:10:49.367Z,28.90
2018-02-16T06:11:23.057Z,30.20
2018-02-16T06:11:56.722Z,29.17
2018-02-16T06:12:30.386Z,29.45
2018-02-16T06:13:04.847Z,30.90
2018-02-16T06:13:38.523Z,31.02
2018-02-16T06:14:12.226Z,30.17
2018-02-16T06:14:45.899Z,31.37
2018-02-16T06:15:19.567Z,32.15
2018-02-16T06:15:53.234Z,31.65
2018-02-16T06:16:27.709Z,29.75
2018-02-16T06:17:01.379Z,31.35
2018-02-16T06:17:35.074Z,30.70
2018-02-16T06:18:08.774Z,31.45
2018-02-16T06:18:42.442Z,30.70
2018-02-16T06:19:16.116Z,30.62
2018-02-16T06:19:49.793Z,31.52
2018-02-16T06:20:23.467Z,29.92
2018-02-16T06:20:57.898Z,31.67
2018-02-16T06:21:31.565Z,32.28
2018-02-16T06:22:06.613Z,30.08
2018-02-16T06:22:40.490Z,32.50
2018-02-16T06:23:14.199Z,31.65
2018-02-16T06:23:47.858Z,31.25
2018-02-16T06:24:22.289Z,30.58
2018-02-16T06:24:55.967Z,31.05
2018-02-16T06:25:30.405Z,29.63
2018-02-16T06:26:04.080Z,30.33
2018-02-16T06:26:37.742Z,31.10
2018-02-16T06:27:12.191Z,29.75
2018-02-16T06:27:45.881Z,30.60
2018-02-16T06:28:19.594Z,29.60
2018-02-16T06:28:54.023Z,30.40
2018-02-16T06:29:27.706Z,30.30
2018-02-16T06:30:01.401Z,28.38
2018-02-16T06:30:35.274Z,27.80
2018-02-16T06:31:09.716Z,28.58
2018-02-16T06:31:44.160Z,28.15
2018-02-16T06:32:17.837Z,30.05
2018-02-16T06:32:51.505Z,28.62
2018-02-16T06:33:25.988Z,29.63
2018-02-16T06:33:59.644Z,28.45
2018-02-16T06:34:33.317Z,29.83
2018-02-16T06:35:06.982Z,30.10
2018-02-16T06:35:41.438Z,28.45
2018-02-16T06:36:15.115Z,26.85
2018-02-16T06:36:48.783Z,28.80
2018-02-16T06:37:23.216Z,28.48
2018-02-16T06:37:56.874Z,28.42
2018-02-16T06:38:31.346Z,27.83
2018-02-16T06:39:04.357Z,29.30
2018-02-16T06:39:38.798Z,27.85
2018-02-16T06:40:12.479Z,27.45
2018-02-16T06:40:46.167Z,28.12
2018-02-16T06:41:19.829Z,27.27
2018-02-16T06:41:54.274Z,28.30
2018-02-16T06:42:27.949Z,27.10
2018-02-16T06:43:01.621Z,28.80
2018-02-16T06:43:36.085Z,27.45
2018-02-16T06:44:09.431Z,25.35
2018-02-16T06:44:43.090Z,26.02
2018-02-16T06:45:17.517Z,26.60
2018-02-16T06:45:51.194Z,25.30
2018-02-16T06:46:25.621Z,25.08
2018-02-16T06:46:59.299Z,27.35
2018-02-16T06:47:32.977Z,27.90
2018-02-16T06:48:07.409Z,26.30
2018-02-16T06:48:41.112Z,25.83
2018-02-16T06:49:14.763Z,27.08
2018-02-16T06:49:49.217Z,27.05
2018-02-16T06:50:22.886Z,27.27
2018-02-16T06:50:56.549Z,26.35
2018-02-16T06:51:30.994Z,26.52
2018-02-16T06:52:04.663Z,27.00
2018-02-16T06:52:38.331Z,25.85
2018-02-16T06:53:12.772Z,27.62
2018-02-16T06:53:46.466Z,28.65
2018-02-16T06:54:20.139Z,25.83
2018-02-16T06:54:53.806Z,26.35
2018-02-16T06:55:28.247Z,25.55
2018-02-16T06:56:01.906Z,25.48
2018-02-16T06:56:36.147Z,26.60
2018-02-16T06:57:09.819Z,25.02
2018-02-16T06:57:43.550Z,24.92
2018-02-16T06:58:17.238Z,25.70
2018-02-16T06:58:50.930Z,24.58
2018-02-16T06:59:24.587Z,25.95
2018-02-16T06:59:58.297Z,24.70
2018-02-16T07:00:31.978Z,23.95
2018-02-16T07:01:05.649Z,24.17
2018-02-16T07:01:39.308Z,25.05
2018-02-16T07:02:13.759Z,24.35
2018-02-16T07:02:47.091Z,27.17
2018-02-16T07:03:20.794Z,24.15
2018-02-16T07:03:54.647Z,25.73
2018-02-16T07:04:28.335Z,25.73
2018-02-16T07:05:02.007Z,23.85
2018-02-16T07:05:35.678Z,22.52
2018-02-16T07:06:09.362Z,23.65
2018-02-16T07:06:42.849Z,25.75
2018-02-16T07:07:16.535Z,24.35
2018-02-16T07:07:50.958Z,24.42
2018-02-16T07:08:24.635Z,23.48
2018-02-16T07:08:58.342Z,23.60
2018-02-16T07:09:32.026Z,24.15
2018-02-16T07:10:05.704Z,24.05
2018-02-16T07:10:39.191Z,23.15
2018-02-16T07:11:12.879Z,24.77
2018-02-16T07:11:46.571Z,23.55
2018-02-16T07:12:20.233Z,22.98
2018-02-16T07:12:54.665Z,22.70
2018-02-16T07:13:28.334Z,21.27
2018-02-16T07:14:02.815Z,23.50
2018-02-16T07:14:36.470Z,22.05
2018-02-16T07:15:10.246Z,22.05
2018-02-16T07:15:43.908Z,22.23
2018-02-16T07:16:18.352Z,22.83